Poumaka — FAB6573 — position and weather

sailwx.info

Track history (hours):
 
Tides and Currents Weather Stations Pressure Air Temp Water Temp Dewpoint Dewpoint Depression Visibility Wind Speed Wind Dir Waves Ship Positions

Poumaka

Last reported at 2017-Aug-21 10:50 UTC. Time now 2017-Nov-18 12:20 UTC.
Position N 47°29' W 003°34'.
Warning: this ship's position is months out of date.

Length 18 m.

Type: Sailing vessel. MMSI: 227223860.

Date/timePositionNaut miles runAvg speedWind from/ knotsBaromVisibWave heightAir tempDewpointWater temp
2017-Aug-21 10:50N 47°29' W 003°34'4 5.8
2017-Aug-21 10:08N 47°26' W 003°30'1 5.8
2017-Aug-21 09:57N 47°26' W 003°28'3 5.9
2017-Aug-21 09:26N 47°24' W 003°25'11 0.5
2017-Aug-20 08:44N 47°21' W 003°09'1 3.4
2017-Aug-20 08:30N 47°20' W 003°08'3 0.2
2017-Aug-19 15:56N 47°23' W 003°11'3 4.6
2017-Aug-19 15:20N 47°25' W 003°14'2 5.5
2017-Aug-19 14:57N 47°26' W 003°16'6 5.9
2017-Aug-19 14:00N 47°31' W 003°20'3 6.0
2017-Aug-19 13:30N 47°34' W 003°22'3 6.3
2017-Aug-19 13:00N 47°37' W 003°24'2 4.7
2017-Aug-19 12:30N 47°39' W 003°25'1 2.1
2017-Aug-19 11:59N 47°39' W 003°27'0 0.0
2017-Aug-19 11:29N 47°39' W 003°27'0 0.0
2017-Aug-19 10:59N 47°39' W 003°27'0 0.0
2017-Aug-19 10:29N 47°39' W 003°27'0 0.0
2017-Aug-19 09:53N 47°39' W 003°27'0 0.0
2017-Aug-19 09:29N 47°39' W 003°27'0 0.0
2017-Aug-19 08:59N 47°39' W 003°27'0 0.0
2017-Aug-19 08:14N 47°39' W 003°27'0 0.0
2017-Aug-19 07:59N 47°39' W 003°27'0 0.0
2017-Aug-19 07:17N 47°39' W 003°27'0 0.0
2017-Aug-19 06:59N 47°39' W 003°27'0 0.0
2017-Aug-19 06:23N 47°39' W 003°27'0 0.0
2017-Aug-19 05:59N 47°39' W 003°27'0 0.0
2017-Aug-19 05:26N 47°39' W 003°27'0 0.0
2017-Aug-19 04:50N 47°39' W 003°27'0 0.0
2017-Aug-19 03:38N 47°39' W 003°27'0 0.0
2017-Aug-19 03:23N 47°39' W 003°27'0 0.0
2017-Aug-19 02:50N 47°39' W 003°27'0 0.0
2017-Aug-19 02:23N 47°39' W 003°27'0 0.0
2017-Aug-19 00:59N 47°39' W 003°27'0 0.0
2017-Aug-19 00:29N 47°39' W 003°27'0 0.0
2017-Aug-18 23:59N 47°39' W 003°27'0 0.0
2017-Aug-18 21:26N 47°39' W 003°27'0 0.0
2017-Aug-18 16:23N 47°39' W 003°27'0 0.0
2017-Aug-18 15:41N 47°39' W 003°27'0 0.0
2017-Aug-18 15:29N 47°39' W 003°27'0 0.1
2017-Aug-18 14:32N 47°39' W 003°27'0 0.5
2017-Aug-18 14:30N 47°39' W 003°27'  
Track history (hours):
 
Tides and Currents Weather Stations Pressure Air Temp Water Temp Dewpoint Dewpoint Depression Visibility Wind Speed Wind Dir Waves Ship Positions

Poumaka

Last reported at 2017-Aug-21 10:50 UTC. Time now 2017-Nov-18 12:20 UTC.
Position N 47°29' W 003°34'.
Warning: this ship's position is months out of date.

Length 18 m.

Type: Sailing vessel. MMSI: 227223860.

Date/timePositionNaut miles runAvg speedWind from/ knotsBaromVisibWave heightAir tempDewpointWater temp
2017-Aug-21 10:50N 47°29' W 003°34'4 5.8
2017-Aug-21 10:08N 47°26' W 003°30'1 5.8
2017-Aug-21 09:57N 47°26' W 003°28'3 5.9
2017-Aug-21 09:26N 47°24' W 003°25'11 0.5
2017-Aug-20 08:44N 47°21' W 003°09'1 3.4
2017-Aug-20 08:30N 47°20' W 003°08'3 0.2
2017-Aug-19 15:56N 47°23' W 003°11'3 4.6
2017-Aug-19 15:20N 47°25' W 003°14'2 5.5
2017-Aug-19 14:57N 47°26' W 003°16'6 5.9
2017-Aug-19 14:00N 47°31' W 003°20'3 6.0
2017-Aug-19 13:30N 47°34' W 003°22'3 6.3
2017-Aug-19 13:00N 47°37' W 003°24'2 4.7
2017-Aug-19 12:30N 47°39' W 003°25'1 2.1
2017-Aug-19 11:59N 47°39' W 003°27'0 0.0
2017-Aug-19 11:29N 47°39' W 003°27'0 0.0
2017-Aug-19 10:59N 47°39' W 003°27'0 0.0
2017-Aug-19 10:29N 47°39' W 003°27'0 0.0
2017-Aug-19 09:53N 47°39' W 003°27'0 0.0
2017-Aug-19 09:29N 47°39' W 003°27'0 0.0
2017-Aug-19 08:59N 47°39' W 003°27'0 0.0
2017-Aug-19 08:14N 47°39' W 003°27'0 0.0
2017-Aug-19 07:59N 47°39' W 003°27'0 0.0
2017-Aug-19 07:17N 47°39' W 003°27'0 0.0
2017-Aug-19 06:59N 47°39' W 003°27'0 0.0
2017-Aug-19 06:23N 47°39' W 003°27'0 0.0
2017-Aug-19 05:59N 47°39' W 003°27'0 0.0
2017-Aug-19 05:26N 47°39' W 003°27'0 0.0
2017-Aug-19 04:50N 47°39' W 003°27'0 0.0
2017-Aug-19 03:38N 47°39' W 003°27'0 0.0
2017-Aug-19 03:23N 47°39' W 003°27'0 0.0
2017-Aug-19 02:50N 47°39' W 003°27'0 0.0
2017-Aug-19 02:23N 47°39' W 003°27'0 0.0
2017-Aug-19 00:59N 47°39' W 003°27'0 0.0
2017-Aug-19 00:29N 47°39' W 003°27'0 0.0
2017-Aug-18 23:59N 47°39' W 003°27'0 0.0
2017-Aug-18 21:26N 47°39' W 003°27'0 0.0
2017-Aug-18 16:23N 47°39' W 003°27'0 0.0
2017-Aug-18 15:41N 47°39' W 003°27'0 0.0
2017-Aug-18 15:29N 47°39' W 003°27'0 0.1
2017-Aug-18 14:32N 47°39' W 003°27'0 0.5
2017-Aug-18 14:30N 47°39' W 003°27'  

Dump ship's entire track history